sensor_id;sensor_type;location;lat;lon;timestamp;P1;durP1;ratioP1;P2;durP2;ratioP2
7583;SDS011;3833;41.764;26.204;2023-05-17T00:02:26;4.53;;;3.70;;
7583;SDS011;3833;41.764;26.204;2023-05-17T00:04:53;8.47;;;3.70;;
7583;SDS011;3833;41.764;26.204;2023-05-17T00:07:20;6.50;;;3.97;;
7583;SDS011;3833;41.764;26.204;2023-05-17T00:09:47;6.17;;;5.57;;
7583;SDS011;3833;41.764;26.204;2023-05-17T00:12:13;7.13;;;6.37;;
7583;SDS011;3833;41.764;26.204;2023-05-17T00:14:40;6.40;;;5.40;;
7583;SDS011;3833;41.764;26.204;2023-05-17T00:17:08;8.07;;;4.60;;
7583;SDS011;3833;41.764;26.204;2023-05-17T00:19:35;10.87;;;4.73;;
7583;SDS011;3833;41.764;26.204;2023-05-17T00:22:02;12.47;;;4.10;;
7583;SDS011;3833;41.764;26.204;2023-05-17T00:24:29;6.23;;;4.50;;
7583;SDS011;3833;41.764;26.204;2023-05-17T00:26:56;8.63;;;4.43;;
7583;SDS011;3833;41.764;26.204;2023-05-17T00:29:23;9.00;;;4.10;;
7583;SDS011;3833;41.764;26.204;2023-05-17T00:31:50;7.67;;;4.10;;
7583;SDS011;3833;41.764;26.204;2023-05-17T00:34:18;5.93;;;4.40;;
7583;SDS011;3833;41.764;26.204;2023-05-17T00:36:45;5.37;;;4.57;;
7583;SDS011;3833;41.764;26.204;2023-05-17T00:39:11;7.57;;;4.07;;
7583;SDS011;3833;41.764;26.204;2023-05-17T00:41:38;5.73;;;4.43;;
7583;SDS011;3833;41.764;26.204;2023-05-17T00:44:05;8.83;;;4.53;;
7583;SDS011;3833;41.764;26.204;2023-05-17T00:46:32;9.07;;;4.70;;
7583;SDS011;3833;41.764;26.204;2023-05-17T00:48:59;6.03;;;4.47;;
7583;SDS011;3833;41.764;26.204;2023-05-17T00:51:27;5.63;;;4.10;;
7583;SDS011;3833;41.764;26.204;2023-05-17T00:53:55;6.87;;;4.77;;
7583;SDS011;3833;41.764;26.204;2023-05-17T00:56:22;7.33;;;4.60;;
7583;SDS011;3833;41.764;26.204;2023-05-17T00:58:49;5.27;;;4.23;;
7583;SDS011;3833;41.764;26.204;2023-05-17T01:01:16;8.67;;;4.80;;
7583;SDS011;3833;41.764;26.204;2023-05-17T01:03:43;9.70;;;5.33;;
7583;SDS011;3833;41.764;26.204;2023-05-17T01:06:10;6.97;;;4.47;;
7583;SDS011;3833;41.764;26.204;2023-05-17T01:08:38;7.77;;;4.27;;
7583;SDS011;3833;41.764;26.204;2023-05-17T01:11:07;6.37;;;4.60;;
7583;SDS011;3833;41.764;26.204;2023-05-17T01:13:41;6.87;;;4.77;;
7583;SDS011;3833;41.764;26.204;2023-05-17T01:16:17;7.63;;;4.70;;
7583;SDS011;3833;41.764;26.204;2023-05-17T01:18:47;5.93;;;4.97;;
7583;SDS011;3833;41.764;26.204;2023-05-17T01:21:24;6.60;;;4.37;;
7583;SDS011;3833;41.764;26.204;2023-05-17T01:24:02;5.50;;;4.10;;
7583;SDS011;3833;41.764;26.204;2023-05-17T01:26:38;5.67;;;4.63;;
7583;SDS011;3833;41.764;26.204;2023-05-17T01:29:06;6.47;;;4.67;;
7583;SDS011;3833;41.764;26.204;2023-05-17T01:31:34;5.43;;;4.83;;
7583;SDS011;3833;41.764;26.204;2023-05-17T01:34:05;7.23;;;4.50;;
7583;SDS011;3833;41.764;26.204;2023-05-17T01:36:32;6.03;;;4.60;;
7583;SDS011;3833;41.764;26.204;2023-05-17T01:38:59;4.97;;;4.47;;
7583;SDS011;3833;41.764;26.204;2023-05-17T01:41:26;10.07;;;5.30;;
7583;SDS011;3833;41.764;26.204;2023-05-17T01:43:59;6.57;;;4.50;;
7583;SDS011;3833;41.764;26.204;2023-05-17T01:46:30;8.27;;;5.20;;
7583;SDS011;3833;41.764;26.204;2023-05-17T01:49:01;5.67;;;4.50;;
7583;SDS011;3833;41.764;26.204;2023-05-17T01:51:32;8.43;;;5.60;;
7583;SDS011;3833;41.764;26.204;2023-05-17T01:54:00;10.23;;;5.30;;
7583;SDS011;3833;41.764;26.204;2023-05-17T01:56:33;6.33;;;4.80;;
7583;SDS011;3833;41.764;26.204;2023-05-17T01:59:02;9.13;;;6.00;;
7583;SDS011;3833;41.764;26.204;2023-05-17T02:01:32;10.03;;;5.90;;
7583;SDS011;3833;41.764;26.204;2023-05-17T02:03:59;7.87;;;5.97;;
7583;SDS011;3833;41.764;26.204;2023-05-17T02:06:26;9.80;;;5.93;;
7583;SDS011;3833;41.764;26.204;2023-05-17T02:08:52;10.27;;;5.30;;
7583;SDS011;3833;41.764;26.204;2023-05-17T02:11:19;6.23;;;4.93;;
7583;SDS011;3833;41.764;26.204;2023-05-17T02:13:49;6.97;;;5.27;;
7583;SDS011;3833;41.764;26.204;2023-05-17T02:16:17;6.93;;;5.43;;
7583;SDS011;3833;41.764;26.204;2023-05-17T02:18:44;7.80;;;5.90;;
7583;SDS011;3833;41.764;26.204;2023-05-17T02:21:11;6.43;;;5.27;;
7583;SDS011;3833;41.764;26.204;2023-05-17T02:23:38;8.63;;;5.23;;
7583;SDS011;3833;41.764;26.204;2023-05-17T02:26:05;6.00;;;5.27;;
7583;SDS011;3833;41.764;26.204;2023-05-17T02:28:31;7.63;;;6.23;;
7583;SDS011;3833;41.764;26.204;2023-05-17T02:30:58;8.00;;;5.30;;
7583;SDS011;3833;41.764;26.204;2023-05-17T02:33:27;8.47;;;6.47;;
7583;SDS011;3833;41.764;26.204;2023-05-17T02:35:53;8.10;;;5.20;;
7583;SDS011;3833;41.764;26.204;2023-05-17T02:38:20;8.50;;;5.77;;
7583;SDS011;3833;41.764;26.204;2023-05-17T02:40:48;9.27;;;5.67;;
7583;SDS011;3833;41.764;26.204;2023-05-17T02:43:15;10.20;;;5.90;;
7583;SDS011;3833;41.764;26.204;2023-05-17T02:45:42;12.03;;;6.87;;
7583;SDS011;3833;41.764;26.204;2023-05-17T02:48:09;9.00;;;5.63;;
7583;SDS011;3833;41.764;26.204;2023-05-17T02:50:38;9.30;;;5.23;;
7583;SDS011;3833;41.764;26.204;2023-05-17T02:53:05;8.20;;;6.37;;
7583;SDS011;3833;41.764;26.204;2023-05-17T02:55:32;6.40;;;4.67;;
7583;SDS011;3833;41.764;26.204;2023-05-17T02:57:58;6.73;;;4.80;;
7583;SDS011;3833;41.764;26.204;2023-05-17T03:00:25;8.03;;;4.80;;
7583;SDS011;3833;41.764;26.204;2023-05-17T03:02:52;7.97;;;4.93;;
7583;SDS011;3833;41.764;26.204;2023-05-17T03:05:19;9.20;;;5.80;;
7583;SDS011;3833;41.764;26.204;2023-05-17T03:07:47;10.40;;;5.50;;
7583;SDS011;3833;41.764;26.204;2023-05-17T03:10:14;8.63;;;5.20;;
7583;SDS011;3833;41.764;26.204;2023-05-17T03:12:41;8.00;;;5.23;;
7583;SDS011;3833;41.764;26.204;2023-05-17T03:15:09;5.27;;;4.43;;
7583;SDS011;3833;41.764;26.204;2023-05-17T03:17:36;5.13;;;4.63;;
7583;SDS011;3833;41.764;26.204;2023-05-17T03:20:04;5.07;;;4.57;;
7583;SDS011;3833;41.764;26.204;2023-05-17T03:22:32;9.80;;;5.80;;
7583;SDS011;3833;41.764;26.204;2023-05-17T03:25:00;7.63;;;4.90;;
7583;SDS011;3833;41.764;26.204;2023-05-17T03:27:28;8.23;;;4.93;;
7583;SDS011;3833;41.764;26.204;2023-05-17T03:29:55;5.87;;;4.50;;
7583;SDS011;3833;41.764;26.204;2023-05-17T03:32:21;6.10;;;4.23;;
7583;SDS011;3833;41.764;26.204;2023-05-17T03:34:48;9.83;;;4.60;;
7583;SDS011;3833;41.764;26.204;2023-05-17T03:37:15;5.80;;;4.40;;
7583;SDS011;3833;41.764;26.204;2023-05-17T03:39:42;9.30;;;4.70;;
7583;SDS011;3833;41.764;26.204;2023-05-17T03:42:11;7.13;;;4.43;;
7583;SDS011;3833;41.764;26.204;2023-05-17T03:44:38;9.27;;;4.83;;
7583;SDS011;3833;41.764;26.204;2023-05-17T03:47:05;5.57;;;4.63;;
7583;SDS011;3833;41.764;26.204;2023-05-17T03:49:32;8.00;;;4.50;;
7583;SDS011;3833;41.764;26.204;2023-05-17T03:51:59;9.37;;;4.23;;
7583;SDS011;3833;41.764;26.204;2023-05-17T03:54:26;5.37;;;4.83;;
7583;SDS011;3833;41.764;26.204;2023-05-17T03:56:53;5.93;;;5.33;;
7583;SDS011;3833;41.764;26.204;2023-05-17T03:59:21;8.93;;;4.90;;
7583;SDS011;3833;41.764;26.204;2023-05-17T04:01:48;9.50;;;5.73;;
7583;SDS011;3833;41.764;26.204;2023-05-17T04:04:15;7.13;;;5.30;;
7583;SDS011;3833;41.764;26.204;2023-05-17T04:06:42;5.97;;;5.43;;
7583;SDS011;3833;41.764;26.204;2023-05-17T04:09:09;8.47;;;5.20;;
7583;SDS011;3833;41.764;26.204;2023-05-17T04:11:39;8.17;;;5.40;;
7583;SDS011;3833;41.764;26.204;2023-05-17T04:14:06;13.63;;;7.13;;
7583;SDS011;3833;41.764;26.204;2023-05-17T04:16:35;9.03;;;6.73;;
7583;SDS011;3833;41.764;26.204;2023-05-17T04:19:02;12.13;;;7.23;;
7583;SDS011;3833;41.764;26.204;2023-05-17T04:21:29;7.67;;;6.00;;
7583;SDS011;3833;41.764;26.204;2023-05-17T04:23:55;9.73;;;6.13;;
7583;SDS011;3833;41.764;26.204;2023-05-17T04:26:23;13.43;;;7.60;;
7583;SDS011;3833;41.764;26.204;2023-05-17T04:28:51;9.80;;;6.47;;
7583;SDS011;3833;41.764;26.204;2023-05-17T04:31:18;11.93;;;8.30;;
7583;SDS011;3833;41.764;26.204;2023-05-17T04:33:46;13.50;;;9.77;;
7583;SDS011;3833;41.764;26.204;2023-05-17T04:36:13;15.27;;;11.00;;
7583;SDS011;3833;41.764;26.204;2023-05-17T04:38:40;14.03;;;11.13;;
7583;SDS011;3833;41.764;26.204;2023-05-17T04:41:07;13.83;;;11.13;;
7583;SDS011;3833;41.764;26.204;2023-05-17T04:43:34;16.77;;;11.37;;
7583;SDS011;3833;41.764;26.204;2023-05-17T04:46:01;13.77;;;10.77;;
7583;SDS011;3833;41.764;26.204;2023-05-17T04:48:30;16.13;;;11.53;;
7583;SDS011;3833;41.764;26.204;2023-05-17T04:51:00;16.37;;;10.90;;
7583;SDS011;3833;41.764;26.204;2023-05-17T04:53:28;17.40;;;11.53;;
7583;SDS011;3833;41.764;26.204;2023-05-17T04:55:55;15.17;;;11.70;;
7583;SDS011;3833;41.764;26.204;2023-05-17T04:58:22;15.90;;;11.10;;
7583;SDS011;3833;41.764;26.204;2023-05-17T05:00:49;17.30;;;11.37;;
7583;SDS011;3833;41.764;26.204;2023-05-17T05:03:16;17.30;;;11.63;;
7583;SDS011;3833;41.764;26.204;2023-05-17T05:05:43;17.33;;;10.77;;
7583;SDS011;3833;41.764;26.204;2023-05-17T05:08:12;15.53;;;10.27;;
7583;SDS011;3833;41.764;26.204;2023-05-17T05:10:39;14.80;;;10.50;;
7583;SDS011;3833;41.764;26.204;2023-05-17T05:13:06;14.33;;;10.17;;
7583;SDS011;3833;41.764;26.204;2023-05-17T05:15:33;9.97;;;8.60;;
7583;SDS011;3833;41.764;26.204;2023-05-17T05:18:00;11.33;;;8.60;;
7583;SDS011;3833;41.764;26.204;2023-05-17T05:20:27;10.07;;;7.80;;
7583;SDS011;3833;41.764;26.204;2023-05-17T05:22:54;11.67;;;7.43;;
7583;SDS011;3833;41.764;26.204;2023-05-17T05:25:24;13.17;;;7.30;;
7583;SDS011;3833;41.764;26.204;2023-05-17T05:27:50;9.37;;;7.83;;
7583;SDS011;3833;41.764;26.204;2023-05-17T05:30:17;10.73;;;7.23;;
7583;SDS011;3833;41.764;26.204;2023-05-17T05:32:47;9.60;;;7.63;;
7583;SDS011;3833;41.764;26.204;2023-05-17T05:35:14;10.30;;;6.97;;
7583;SDS011;3833;41.764;26.204;2023-05-17T05:37:41;10.53;;;6.67;;
7583;SDS011;3833;41.764;26.204;2023-05-17T05:40:09;7.40;;;5.97;;
7583;SDS011;3833;41.764;26.204;2023-05-17T05:42:38;8.70;;;6.23;;
7583;SDS011;3833;41.764;26.204;2023-05-17T05:45:05;9.57;;;6.17;;
7583;SDS011;3833;41.764;26.204;2023-05-17T05:47:33;10.90;;;6.27;;
7583;SDS011;3833;41.764;26.204;2023-05-17T05:50:00;9.37;;;6.03;;
7583;SDS011;3833;41.764;26.204;2023-05-17T05:52:27;10.53;;;6.77;;
7583;SDS011;3833;41.764;26.204;2023-05-17T05:54:54;9.13;;;6.70;;
7583;SDS011;3833;41.764;26.204;2023-05-17T05:57:21;9.00;;;5.97;;
7583;SDS011;3833;41.764;26.204;2023-05-17T05:59:49;7.13;;;6.13;;
7583;SDS011;3833;41.764;26.204;2023-05-17T06:02:16;12.90;;;6.80;;
7583;SDS011;3833;41.764;26.204;2023-05-17T06:04:43;12.83;;;6.07;;
7583;SDS011;3833;41.764;26.204;2023-05-17T06:07:12;8.90;;;6.10;;
7583;SDS011;3833;41.764;26.204;2023-05-17T06:09:38;7.53;;;6.20;;
7583;SDS011;3833;41.764;26.204;2023-05-17T06:12:05;11.80;;;5.77;;
7583;SDS011;3833;41.764;26.204;2023-05-17T06:14:32;7.67;;;5.53;;
7583;SDS011;3833;41.764;26.204;2023-05-17T06:17:01;8.43;;;5.13;;
7583;SDS011;3833;41.764;26.204;2023-05-17T06:19:28;8.67;;;4.80;;
7583;SDS011;3833;41.764;26.204;2023-05-17T06:21:55;8.47;;;4.20;;
7583;SDS011;3833;41.764;26.204;2023-05-17T06:24:22;8.57;;;4.30;;
7583;SDS011;3833;41.764;26.204;2023-05-17T06:26:49;9.67;;;4.90;;
7583;SDS011;3833;41.764;26.204;2023-05-17T06:29:15;8.13;;;5.00;;
7583;SDS011;3833;41.764;26.204;2023-05-17T06:31:42;8.93;;;4.97;;
7583;SDS011;3833;41.764;26.204;2023-05-17T06:34:10;9.50;;;5.80;;
7583;SDS011;3833;41.764;26.204;2023-05-17T06:36:37;11.07;;;6.37;;
7583;SDS011;3833;41.764;26.204;2023-05-17T06:39:04;8.03;;;6.17;;
7583;SDS011;3833;41.764;26.204;2023-05-17T06:41:31;9.63;;;6.47;;
7583;SDS011;3833;41.764;26.204;2023-05-17T06:43:59;10.17;;;6.70;;
7583;SDS011;3833;41.764;26.204;2023-05-17T06:46:25;7.10;;;6.40;;
7583;SDS011;3833;41.764;26.204;2023-05-17T06:48:52;9.80;;;7.23;;
7583;SDS011;3833;41.764;26.204;2023-05-17T06:51:20;11.07;;;7.80;;
7583;SDS011;3833;41.764;26.204;2023-05-17T06:53:47;9.23;;;7.73;;
7583;SDS011;3833;41.764;26.204;2023-05-17T06:56:14;11.60;;;8.43;;
7583;SDS011;3833;41.764;26.204;2023-05-17T06:58:41;12.23;;;7.43;;
7583;SDS011;3833;41.764;26.204;2023-05-17T07:01:08;11.97;;;8.43;;
7583;SDS011;3833;41.764;26.204;2023-05-17T07:03:35;10.63;;;8.30;;
7583;SDS011;3833;41.764;26.204;2023-05-17T07:06:02;12.87;;;8.47;;
7583;SDS011;3833;41.764;26.204;2023-05-17T07:08:30;11.67;;;9.57;;
7583;SDS011;3833;41.764;26.204;2023-05-17T07:10:57;15.17;;;10.10;;
7583;SDS011;3833;41.764;26.204;2023-05-17T07:13:24;13.90;;;10.73;;
7583;SDS011;3833;41.764;26.204;2023-05-17T07:15:51;13.83;;;10.37;;
7583;SDS011;3833;41.764;26.204;2023-05-17T07:18:18;12.77;;;10.50;;
7583;SDS011;3833;41.764;26.204;2023-05-17T07:20:45;13.90;;;10.53;;
7583;SDS011;3833;41.764;26.204;2023-05-17T07:23:12;18.07;;;12.13;;
7583;SDS011;3833;41.764;26.204;2023-05-17T07:25:40;21.97;;;15.53;;
7583;SDS011;3833;41.764;26.204;2023-05-17T07:28:07;15.50;;;11.30;;
7583;SDS011;3833;41.764;26.204;2023-05-17T07:30:34;15.83;;;10.37;;
7583;SDS011;3833;41.764;26.204;2023-05-17T07:33:01;14.77;;;11.57;;
7583;SDS011;3833;41.764;26.204;2023-05-17T07:35:27;13.57;;;10.60;;
7583;SDS011;3833;41.764;26.204;2023-05-17T07:37:54;15.43;;;12.30;;
7583;SDS011;3833;41.764;26.204;2023-05-17T07:40:21;14.10;;;11.43;;
7583;SDS011;3833;41.764;26.204;2023-05-17T07:42:50;14.57;;;11.13;;
7583;SDS011;3833;41.764;26.204;2023-05-17T07:45:17;15.33;;;11.07;;
7583;SDS011;3833;41.764;26.204;2023-05-17T07:47:44;17.90;;;12.20;;
7583;SDS011;3833;41.764;26.204;2023-05-17T07:50:11;14.73;;;11.97;;
7583;SDS011;3833;41.764;26.204;2023-05-17T07:52:37;17.73;;;13.47;;
7583;SDS011;3833;41.764;26.204;2023-05-17T07:55:05;18.70;;;13.07;;
7583;SDS011;3833;41.764;26.204;2023-05-17T07:57:33;22.33;;;13.40;;
7583;SDS011;3833;41.764;26.204;2023-05-17T08:00:01;17.50;;;13.30;;
7583;SDS011;3833;41.764;26.204;2023-05-17T08:02:30;18.27;;;13.87;;
7583;SDS011;3833;41.764;26.204;2023-05-17T08:04:57;18.90;;;14.43;;
7583;SDS011;3833;41.764;26.204;2023-05-17T08:07:24;19.97;;;15.30;;
7583;SDS011;3833;41.764;26.204;2023-05-17T08:09:51;20.03;;;16.23;;
7583;SDS011;3833;41.764;26.204;2023-05-17T08:12:17;21.63;;;17.23;;
7583;SDS011;3833;41.764;26.204;2023-05-17T08:14:44;20.77;;;16.37;;
7583;SDS011;3833;41.764;26.204;2023-05-17T08:17:12;27.07;;;17.80;;
7583;SDS011;3833;41.764;26.204;2023-05-17T08:19:39;24.40;;;18.20;;
7583;SDS011;3833;41.764;26.204;2023-05-17T08:22:06;24.80;;;18.13;;
7583;SDS011;3833;41.764;26.204;2023-05-17T08:24:33;26.80;;;17.93;;
7583;SDS011;3833;41.764;26.204;2023-05-17T08:27:00;27.33;;;19.07;;
7583;SDS011;3833;41.764;26.204;2023-05-17T08:29:27;26.73;;;19.33;;
7583;SDS011;3833;41.764;26.204;2023-05-17T08:31:54;34.80;;;25.90;;
7583;SDS011;3833;41.764;26.204;2023-05-17T08:34:22;27.90;;;18.63;;
7583;SDS011;3833;41.764;26.204;2023-05-17T08:36:49;29.20;;;21.70;;
7583;SDS011;3833;41.764;26.204;2023-05-17T08:39:17;32.10;;;22.97;;
7583;SDS011;3833;41.764;26.204;2023-05-17T08:41:45;37.70;;;29.17;;
7583;SDS011;3833;41.764;26.204;2023-05-17T08:44:12;30.80;;;25.50;;
7583;SDS011;3833;41.764;26.204;2023-05-17T08:46:41;30.53;;;22.30;;
7583;SDS011;3833;41.764;26.204;2023-05-17T08:49:08;37.30;;;27.53;;
7583;SDS011;3833;41.764;26.204;2023-05-17T08:51:38;61.00;;;40.87;;
7583;SDS011;3833;41.764;26.204;2023-05-17T08:54:06;74.97;;;51.20;;
7583;SDS011;3833;41.764;26.204;2023-05-17T08:56:33;85.13;;;53.30;;
7583;SDS011;3833;41.764;26.204;2023-05-17T08:59:01;64.03;;;44.40;;
7583;SDS011;3833;41.764;26.204;2023-05-17T09:01:30;65.50;;;48.07;;
7583;SDS011;3833;41.764;26.204;2023-05-17T09:03:57;32.97;;;26.20;;
7583;SDS011;3833;41.764;26.204;2023-05-17T09:06:24;39.60;;;30.97;;
7583;SDS011;3833;41.764;26.204;2023-05-17T09:08:53;35.13;;;25.93;;
7583;SDS011;3833;41.764;26.204;2023-05-17T09:11:23;25.50;;;22.27;;
7583;SDS011;3833;41.764;26.204;2023-05-17T09:13:51;28.63;;;22.03;;
7583;SDS011;3833;41.764;26.204;2023-05-17T09:16:18;28.07;;;22.70;;
7583;SDS011;3833;41.764;26.204;2023-05-17T09:18:52;29.80;;;23.10;;
7583;SDS011;3833;41.764;26.204;2023-05-17T09:21:19;28.33;;;22.50;;
7583;SDS011;3833;41.764;26.204;2023-05-17T09:23:46;30.43;;;23.53;;
7583;SDS011;3833;41.764;26.204;2023-05-17T09:26:15;27.37;;;21.90;;
7583;SDS011;3833;41.764;26.204;2023-05-17T09:28:42;27.97;;;21.13;;
7583;SDS011;3833;41.764;26.204;2023-05-17T09:31:10;26.73;;;20.53;;
7583;SDS011;3833;41.764;26.204;2023-05-17T09:33:42;23.97;;;20.83;;
7583;SDS011;3833;41.764;26.204;2023-05-17T09:36:16;26.10;;;21.17;;
7583;SDS011;3833;41.764;26.204;2023-05-17T09:38:50;22.80;;;19.60;;
7583;SDS011;3833;41.764;26.204;2023-05-17T09:41:20;26.70;;;19.57;;
7583;SDS011;3833;41.764;26.204;2023-05-17T09:43:47;27.10;;;19.43;;
7583;SDS011;3833;41.764;26.204;2023-05-17T09:46:14;22.57;;;18.17;;
7583;SDS011;3833;41.764;26.204;2023-05-17T09:48:41;23.53;;;20.43;;
7583;SDS011;3833;41.764;26.204;2023-05-17T09:51:10;21.67;;;19.30;;
7583;SDS011;3833;41.764;26.204;2023-05-17T09:53:37;23.83;;;17.53;;
7583;SDS011;3833;41.764;26.204;2023-05-17T09:56:06;21.77;;;19.10;;
7583;SDS011;3833;41.764;26.204;2023-05-17T09:58:35;20.60;;;16.97;;
7583;SDS011;3833;41.764;26.204;2023-05-17T10:01:03;20.03;;;17.53;;
7583;SDS011;3833;41.764;26.204;2023-05-17T10:03:31;23.47;;;20.53;;
7583;SDS011;3833;41.764;26.204;2023-05-17T10:05:59;23.57;;;19.80;;
7583;SDS011;3833;41.764;26.204;2023-05-17T10:08:28;22.73;;;19.03;;
7583;SDS011;3833;41.764;26.204;2023-05-17T10:10:55;19.13;;;17.10;;
7583;SDS011;3833;41.764;26.204;2023-05-17T10:13:26;19.87;;;16.60;;
7583;SDS011;3833;41.764;26.204;2023-05-17T10:15:57;23.00;;;19.43;;
7583;SDS011;3833;41.764;26.204;2023-05-17T10:18:25;27.83;;;19.90;;
7583;SDS011;3833;41.764;26.204;2023-05-17T10:20:53;22.30;;;18.73;;
7583;SDS011;3833;41.764;26.204;2023-05-17T10:23:20;21.17;;;18.33;;
7583;SDS011;3833;41.764;26.204;2023-05-17T10:25:50;21.70;;;19.40;;
7583;SDS011;3833;41.764;26.204;2023-05-17T10:28:17;21.87;;;19.57;;
7583;SDS011;3833;41.764;26.204;2023-05-17T10:30:45;21.43;;;19.13;;
7583;SDS011;3833;41.764;26.204;2023-05-17T10:33:15;24.10;;;19.63;;
7583;SDS011;3833;41.764;26.204;2023-05-17T10:35:43;25.27;;;21.03;;
7583;SDS011;3833;41.764;26.204;2023-05-17T10:38:10;23.50;;;19.33;;
7583;SDS011;3833;41.764;26.204;2023-05-17T10:40:37;26.37;;;22.53;;
7583;SDS011;3833;41.764;26.204;2023-05-17T10:43:06;25.60;;;22.90;;
7583;SDS011;3833;41.764;26.204;2023-05-17T10:45:35;28.80;;;22.43;;
7583;SDS011;3833;41.764;26.204;2023-05-17T10:48:03;27.27;;;22.83;;
7583;SDS011;3833;41.764;26.204;2023-05-17T10:50:35;24.33;;;21.73;;
7583;SDS011;3833;41.764;26.204;2023-05-17T10:53:06;26.90;;;24.10;;
7583;SDS011;3833;41.764;26.204;2023-05-17T10:55:36;24.80;;;22.30;;
7583;SDS011;3833;41.764;26.204;2023-05-17T10:58:11;23.40;;;21.00;;
7583;SDS011;3833;41.764;26.204;2023-05-17T11:00:41;23.83;;;21.33;;
7583;SDS011;3833;41.764;26.204;2023-05-17T11:03:10;24.00;;;21.27;;
7583;SDS011;3833;41.764;26.204;2023-05-17T11:05:39;26.40;;;22.50;;
7583;SDS011;3833;41.764;26.204;2023-05-17T11:08:16;25.07;;;22.47;;
7583;SDS011;3833;41.764;26.204;2023-05-17T11:13:45;25.33;;;22.63;;
7583;SDS011;3833;41.764;26.204;2023-05-17T11:16:19;25.00;;;22.40;;
7583;SDS011;3833;41.764;26.204;2023-05-17T11:18:51;25.43;;;22.80;;
7583;SDS011;3833;41.764;26.204;2023-05-17T11:21:21;24.73;;;21.60;;
7583;SDS011;3833;41.764;26.204;2023-05-17T11:23:49;25.53;;;22.83;;
7583;SDS011;3833;41.764;26.204;2023-05-17T11:26:21;28.03;;;23.70;;
7583;SDS011;3833;41.764;26.204;2023-05-17T11:28:58;25.73;;;22.97;;
7583;SDS011;3833;41.764;26.204;2023-05-17T11:31:28;26.37;;;22.50;;
7583;SDS011;3833;41.764;26.204;2023-05-17T11:33:57;26.47;;;22.77;;
7583;SDS011;3833;41.764;26.204;2023-05-17T11:36:25;26.30;;;23.27;;
7583;SDS011;3833;41.764;26.204;2023-05-17T11:39:08;26.33;;;23.20;;
7583;SDS011;3833;41.764;26.204;2023-05-17T11:41:36;25.70;;;23.03;;
7583;SDS011;3833;41.764;26.204;2023-05-17T11:44:06;27.33;;;24.43;;
7583;SDS011;3833;41.764;26.204;2023-05-17T11:46:34;30.23;;;25.57;;
7583;SDS011;3833;41.764;26.204;2023-05-17T11:49:01;29.87;;;26.13;;
7583;SDS011;3833;41.764;26.204;2023-05-17T11:51:36;28.47;;;25.50;;
7583;SDS011;3833;41.764;26.204;2023-05-17T11:54:03;26.83;;;24.13;;
7583;SDS011;3833;41.764;26.204;2023-05-17T11:56:33;26.63;;;23.80;;
7583;SDS011;3833;41.764;26.204;2023-05-17T11:59:00;25.23;;;22.57;;
7583;SDS011;3833;41.764;26.204;2023-05-17T12:01:28;26.60;;;23.90;;
7583;SDS011;3833;41.764;26.204;2023-05-17T12:03:56;25.80;;;23.20;;
7583;SDS011;3833;41.764;26.204;2023-05-17T12:06:23;25.67;;;22.90;;
7583;SDS011;3833;41.764;26.204;2023-05-17T12:08:54;26.47;;;23.13;;
7583;SDS011;3833;41.764;26.204;2023-05-17T12:11:21;25.53;;;22.93;;
7583;SDS011;3833;41.764;26.204;2023-05-17T12:13:48;23.63;;;21.10;;
7583;SDS011;3833;41.764;26.204;2023-05-17T12:16:16;22.47;;;20.23;;
7583;SDS011;3833;41.764;26.204;2023-05-17T12:18:47;23.03;;;20.57;;
7583;SDS011;3833;41.764;26.204;2023-05-17T12:21:16;21.80;;;19.57;;
7583;SDS011;3833;41.764;26.204;2023-05-17T12:23:45;23.60;;;19.90;;
7583;SDS011;3833;41.764;26.204;2023-05-17T12:26:15;20.77;;;18.67;;
7583;SDS011;3833;41.764;26.204;2023-05-17T12:28:42;22.67;;;20.13;;
7583;SDS011;3833;41.764;26.204;2023-05-17T12:31:10;22.97;;;20.60;;
7583;SDS011;3833;41.764;26.204;2023-05-17T12:33:39;21.73;;;19.30;;
7583;SDS011;3833;41.764;26.204;2023-05-17T12:36:08;21.83;;;19.53;;
7583;SDS011;3833;41.764;26.204;2023-05-17T12:38:36;23.53;;;21.17;;
7583;SDS011;3833;41.764;26.204;2023-05-17T12:41:04;22.17;;;19.87;;
7583;SDS011;3833;41.764;26.204;2023-05-17T12:43:33;24.83;;;22.07;;
7583;SDS011;3833;41.764;26.204;2023-05-17T12:46:01;29.60;;;23.50;;
7583;SDS011;3833;41.764;26.204;2023-05-17T12:48:31;25.27;;;21.47;;
7583;SDS011;3833;41.764;26.204;2023-05-17T12:51:04;24.17;;;21.60;;
7583;SDS011;3833;41.764;26.204;2023-05-17T12:53:34;25.67;;;22.50;;
7583;SDS011;3833;41.764;26.204;2023-05-17T12:56:02;24.00;;;20.27;;
7583;SDS011;3833;41.764;26.204;2023-05-17T12:58:30;24.83;;;21.63;;
7583;SDS011;3833;41.764;26.204;2023-05-17T13:00:59;24.73;;;21.20;;
7583;SDS011;3833;41.764;26.204;2023-05-17T13:03:29;26.93;;;20.53;;
7583;SDS011;3833;41.764;26.204;2023-05-17T13:05:57;26.83;;;21.50;;
7583;SDS011;3833;41.764;26.204;2023-05-17T13:08:28;24.70;;;21.67;;
7583;SDS011;3833;41.764;26.204;2023-05-17T13:11:05;21.97;;;19.67;;
7583;SDS011;3833;41.764;26.204;2023-05-17T13:13:34;22.70;;;20.30;;
7583;SDS011;3833;41.764;26.204;2023-05-17T13:16:02;24.70;;;20.63;;
7583;SDS011;3833;41.764;26.204;2023-05-17T13:18:29;21.20;;;18.50;;
7583;SDS011;3833;41.764;26.204;2023-05-17T13:20:59;20.03;;;17.93;;
7583;SDS011;3833;41.764;26.204;2023-05-17T13:23:27;19.80;;;17.80;;
7583;SDS011;3833;41.764;26.204;2023-05-17T13:25:54;22.47;;;18.97;;
7583;SDS011;3833;41.764;26.204;2023-05-17T13:28:21;20.27;;;18.27;;
7583;SDS011;3833;41.764;26.204;2023-05-17T13:30:50;23.57;;;17.93;;
7583;SDS011;3833;41.764;26.204;2023-05-17T13:33:17;18.33;;;16.43;;
7583;SDS011;3833;41.764;26.204;2023-05-17T13:35:45;18.27;;;16.43;;
7583;SDS011;3833;41.764;26.204;2023-05-17T13:38:12;17.97;;;14.90;;
7583;SDS011;3833;41.764;26.204;2023-05-17T13:40:39;16.67;;;15.07;;
7583;SDS011;3833;41.764;26.204;2023-05-17T13:43:06;16.90;;;15.10;;
7583;SDS011;3833;41.764;26.204;2023-05-17T13:45:34;14.13;;;12.63;;
7583;SDS011;3833;41.764;26.204;2023-05-17T13:48:03;16.20;;;14.37;;
7583;SDS011;3833;41.764;26.204;2023-05-17T13:50:30;13.73;;;12.33;;
7583;SDS011;3833;41.764;26.204;2023-05-17T13:52:57;12.60;;;11.30;;
7583;SDS011;3833;41.764;26.204;2023-05-17T13:55:26;11.83;;;10.63;;
7583;SDS011;3833;41.764;26.204;2023-05-17T13:57:53;11.90;;;10.73;;
7583;SDS011;3833;41.764;26.204;2023-05-17T14:00:21;10.33;;;9.37;;
7583;SDS011;3833;41.764;26.204;2023-05-17T14:02:48;10.40;;;9.30;;
7583;SDS011;3833;41.764;26.204;2023-05-17T14:05:16;10.70;;;8.80;;
7583;SDS011;3833;41.764;26.204;2023-05-17T14:07:44;9.17;;;8.33;;
7583;SDS011;3833;41.764;26.204;2023-05-17T14:10:11;10.37;;;9.37;;
7583;SDS011;3833;41.764;26.204;2023-05-17T14:12:38;10.43;;;9.43;;
7583;SDS011;3833;41.764;26.204;2023-05-17T14:15:06;10.77;;;8.80;;
7583;SDS011;3833;41.764;26.204;2023-05-17T14:17:35;9.77;;;8.77;;
7583;SDS011;3833;41.764;26.204;2023-05-17T14:20:02;9.23;;;8.33;;
7583;SDS011;3833;41.764;26.204;2023-05-17T14:22:31;9.30;;;8.37;;
7583;SDS011;3833;41.764;26.204;2023-05-17T14:24:58;9.20;;;7.93;;
7583;SDS011;3833;41.764;26.204;2023-05-17T14:27:25;9.07;;;8.17;;
7583;SDS011;3833;41.764;26.204;2023-05-17T14:29:52;8.77;;;7.70;;
7583;SDS011;3833;41.764;26.204;2023-05-17T14:32:19;8.57;;;7.77;;
7583;SDS011;3833;41.764;26.204;2023-05-17T14:34:46;7.73;;;7.07;;
7583;SDS011;3833;41.764;26.204;2023-05-17T14:37:13;9.30;;;8.10;;
7583;SDS011;3833;41.764;26.204;2023-05-17T14:39:41;8.07;;;7.27;;
7583;SDS011;3833;41.764;26.204;2023-05-17T14:42:08;6.73;;;6.13;;
7583;SDS011;3833;41.764;26.204;2023-05-17T14:44:35;7.33;;;6.60;;
7583;SDS011;3833;41.764;26.204;2023-05-17T14:47:04;7.00;;;6.30;;
7583;SDS011;3833;41.764;26.204;2023-05-17T14:49:32;6.23;;;5.57;;
7583;SDS011;3833;41.764;26.204;2023-05-17T14:51:59;6.40;;;5.80;;
7583;SDS011;3833;41.764;26.204;2023-05-17T14:54:26;6.73;;;5.90;;